< < Back
Terminal Aerodrome Forecast


Current Version              Previous Versions:   1  2  3  4  5  6  7  8  9  

Terminal Aerodrome Forecast

088
FTUS44 KMRX 241731
TAFCHA
TAF
KCHA 241731Z 2418/2518 01007KT P6SM SCT200
     FM250000 00000KT P6SM SCT250
     FM251300 01005KT P6SM SCT150 BKN250=



Latest METAR

028
SAUS80 KWBC 250600 RRB
MTRCHA
METAR KCHA 250553Z 00000KT 10SM CLR 09/07 A3008 RMK AO2 SLP183 T00890072
10156 20089 58001


USA.gov is the U.S. government's official web portal to all federal, state and local government web resources and services.